sensor_id;sensor_type;location;lat;lon;timestamp;pressure;altitude;pressure_sealevel;temperature;humidity
57616;BME280;43816;52.054;-9.494;2023-02-19T00:00:06;102309.63;;;19.91;44.91
57616;BME280;43816;52.054;-9.494;2023-02-19T00:00:16;102315.53;;;19.96;44.94
57616;BME280;43816;52.054;-9.494;2023-02-19T00:00:27;102309.50;;;19.93;45.05
57616;BME280;43816;52.054;-9.494;2023-02-19T00:00:37;102308.78;;;19.91;44.92
57616;BME280;43816;52.054;-9.494;2023-02-19T00:00:47;102318.28;;;19.96;44.85
57616;BME280;43816;52.054;-9.494;2023-02-19T00:00:58;102340.72;;;20.10;44.92
57616;BME280;43816;52.054;-9.494;2023-02-19T00:01:10;102316.56;;;19.95;45.11
57616;BME280;43816;52.054;-9.494;2023-02-19T00:01:23;102322.03;;;20.05;44.88
57616;BME280;43816;52.054;-9.494;2023-02-19T00:01:44;102321.44;;;20.02;44.88
57616;BME280;43816;52.054;-9.494;2023-02-19T00:01:55;102342.47;;;20.11;44.89
57616;BME280;43816;52.054;-9.494;2023-02-19T00:02:05;102332.22;;;20.03;44.92
57616;BME280;43816;52.054;-9.494;2023-02-19T00:02:16;102324.34;;;20.00;44.83
57616;BME280;43816;52.054;-9.494;2023-02-19T00:02:26;102333.69;;;20.07;45.04
57616;BME280;43816;52.054;-9.494;2023-02-19T00:02:36;102304.75;;;19.95;45.04
57616;BME280;43816;52.054;-9.494;2023-02-19T00:02:46;102328.91;;;20.00;44.91
57616;BME280;43816;52.054;-9.494;2023-02-19T00:02:57;102320.00;;;19.98;45.08
57616;BME280;43816;52.054;-9.494;2023-02-19T00:03:07;102334.09;;;20.03;45.07
57616;BME280;43816;52.054;-9.494;2023-02-19T00:03:17;102335.69;;;20.05;44.75
57616;BME280;43816;52.054;-9.494;2023-02-19T00:03:28;102331.22;;;20.04;44.90
57616;BME280;43816;52.054;-9.494;2023-02-19T00:03:39;102338.44;;;20.05;44.96
57616;BME280;43816;52.054;-9.494;2023-02-19T00:03:51;102330.66;;;20.01;44.90
57616;BME280;43816;52.054;-9.494;2023-02-19T00:04:09;102322.16;;;19.94;44.86
57616;BME280;43816;52.054;-9.494;2023-02-19T00:04:20;102310.66;;;19.90;44.66
57616;BME280;43816;52.054;-9.494;2023-02-19T00:04:31;102316.84;;;19.92;45.13
57616;BME280;43816;52.054;-9.494;2023-02-19T00:04:41;102329.50;;;20.03;45.06
57616;BME280;43816;52.054;-9.494;2023-02-19T00:04:51;102330.66;;;20.01;45.16
57616;BME280;43816;52.054;-9.494;2023-02-19T00:05:02;102314.38;;;19.89;44.89
57616;BME280;43816;52.054;-9.494;2023-02-19T00:05:12;102336.97;;;20.01;44.86
57616;BME280;43816;52.054;-9.494;2023-02-19T00:05:23;102317.69;;;19.93;45.12
57616;BME280;43816;52.054;-9.494;2023-02-19T00:05:34;102348.63;;;20.03;45.09
57616;BME280;43816;52.054;-9.494;2023-02-19T00:05:44;102309.91;;;19.88;44.83
57616;BME280;43816;52.054;-9.494;2023-02-19T00:05:54;102332.94;;;19.95;44.98
57616;BME280;43816;52.054;-9.494;2023-02-19T00:06:06;102333.81;;;19.96;44.92
57616;BME280;43816;52.054;-9.494;2023-02-19T00:06:19;102357.41;;;20.07;44.94
57616;BME280;43816;52.054;-9.494;2023-02-19T00:06:31;102337.81;;;20.02;45.01
57616;BME280;43816;52.054;-9.494;2023-02-19T00:06:42;102338.13;;;19.99;44.95
57616;BME280;43816;52.054;-9.494;2023-02-19T00:06:52;102352.81;;;20.07;44.97
57616;BME280;43816;52.054;-9.494;2023-02-19T00:07:03;102329.50;;;19.93;45.17
57616;BME280;43816;52.054;-9.494;2023-02-19T00:07:13;102335.41;;;19.99;44.87
57616;BME280;43816;52.054;-9.494;2023-02-19T00:07:23;102330.63;;;19.91;45.04
57616;BME280;43816;52.054;-9.494;2023-02-19T00:07:34;102340.88;;;19.99;44.89
57616;BME280;43816;52.054;-9.494;2023-02-19T00:07:44;102352.94;;;20.06;45.00
57616;BME280;43816;52.054;-9.494;2023-02-19T00:07:54;102331.22;;;19.94;45.29
57616;BME280;43816;52.054;-9.494;2023-02-19T00:08:04;102315.56;;;19.87;45.11
57616;BME280;43816;52.054;-9.494;2023-02-19T00:08:15;102337.38;;;19.96;44.97
57616;BME280;43816;52.054;-9.494;2023-02-19T00:08:25;102343.28;;;20.02;44.92
57616;BME280;43816;52.054;-9.494;2023-02-19T00:08:37;102339.28;;;19.96;45.28
57616;BME280;43816;52.054;-9.494;2023-02-19T00:08:47;102331.50;;;19.91;44.88
57616;BME280;43816;52.054;-9.494;2023-02-19T00:08:58;102324.59;;;19.87;44.77
57616;BME280;43816;52.054;-9.494;2023-02-19T00:09:10;102329.50;;;19.93;44.98
57616;BME280;43816;52.054;-9.494;2023-02-19T00:09:21;102340.13;;;19.96;44.77
57616;BME280;43816;52.054;-9.494;2023-02-19T00:09:31;102343.00;;;19.95;44.52
57616;BME280;43816;52.054;-9.494;2023-02-19T00:09:41;102343.88;;;19.95;45.10
57616;BME280;43816;52.054;-9.494;2023-02-19T00:09:51;102348.75;;;20.02;44.89
57616;BME280;43816;52.054;-9.494;2023-02-19T00:10:02;102343.88;;;19.95;44.89
57616;BME280;43816;52.054;-9.494;2023-02-19T00:10:12;102355.69;;;20.06;44.90
57616;BME280;43816;52.054;-9.494;2023-02-19T00:10:22;102347.19;;;19.99;44.86
57616;BME280;43816;52.054;-9.494;2023-02-19T00:10:33;102329.22;;;19.87;45.02
57616;BME280;43816;52.054;-9.494;2023-02-19T00:10:43;102329.91;;;19.89;45.15
57616;BME280;43816;52.054;-9.494;2023-02-19T00:10:53;102342.00;;;19.96;44.93
57616;BME280;43816;52.054;-9.494;2023-02-19T00:11:10;102340.88;;;19.99;45.05
57616;BME280;43816;52.054;-9.494;2023-02-19T00:11:25;102344.16;;;19.92;44.86
57616;BME280;43816;52.054;-9.494;2023-02-19T00:11:36;102343.75;;;19.97;44.86
57616;BME280;43816;52.054;-9.494;2023-02-19T00:11:47;102359.69;;;20.02;45.07
57616;BME280;43816;52.054;-9.494;2023-02-19T00:11:57;102339.53;;;19.93;45.24
57616;BME280;43816;52.054;-9.494;2023-02-19T00:12:07;102357.69;;;20.04;44.86
57616;BME280;43816;52.054;-9.494;2023-02-19T00:12:18;102319.56;;;19.83;44.97
57616;BME280;43816;52.054;-9.494;2023-02-19T00:12:28;102336.09;;;19.91;44.89
57616;BME280;43816;52.054;-9.494;2023-02-19T00:12:38;102338.13;;;19.89;44.84
57616;BME280;43816;52.054;-9.494;2023-02-19T00:12:48;102342.13;;;19.94;45.00
57616;BME280;43816;52.054;-9.494;2023-02-19T00:12:59;102329.22;;;19.87;44.95
57616;BME280;43816;52.054;-9.494;2023-02-19T00:13:09;102350.50;;;20.03;45.08
57616;BME280;43816;52.054;-9.494;2023-02-19T00:13:19;102343.00;;;19.95;44.97
57616;BME280;43816;52.054;-9.494;2023-02-19T00:13:30;102361.41;;;20.03;44.67
57616;BME280;43816;52.054;-9.494;2023-02-19T00:13:42;102349.34;;;19.95;44.89
57616;BME280;43816;52.054;-9.494;2023-02-19T00:13:54;102344.16;;;19.92;44.95
57616;BME280;43816;52.054;-9.494;2023-02-19T00:14:05;102325.72;;;19.85;44.90
57616;BME280;43816;52.054;-9.494;2023-02-19T00:14:18;102348.31;;;19.96;44.98
57616;BME280;43816;52.054;-9.494;2023-02-19T00:14:29;102346.47;;;19.97;44.97
57616;BME280;43816;52.054;-9.494;2023-02-19T00:14:39;102354.38;;;20.00;45.08
57616;BME280;43816;52.054;-9.494;2023-02-19T00:14:49;102335.25;;;19.90;44.81
57616;BME280;43816;52.054;-9.494;2023-02-19T00:15:00;102342.41;;;19.91;44.93
57616;BME280;43816;52.054;-9.494;2023-02-19T00:15:10;102351.94;;;19.97;44.92
57616;BME280;43816;52.054;-9.494;2023-02-19T00:15:20;102333.50;;;19.89;44.96
57616;BME280;43816;52.054;-9.494;2023-02-19T00:15:31;102353.06;;;19.94;44.80
57616;BME280;43816;52.054;-9.494;2023-02-19T00:15:41;102322.28;;;19.83;44.96
57616;BME280;43816;52.054;-9.494;2023-02-19T00:15:52;102320.72;;;19.80;44.79
57616;BME280;43816;52.054;-9.494;2023-02-19T00:16:19;102356.94;;;20.02;44.79
57616;BME280;43816;52.054;-9.494;2023-02-19T00:16:35;102353.38;;;20.01;44.84
57616;BME280;43816;52.054;-9.494;2023-02-19T00:16:47;102357.97;;;20.01;44.84
57616;BME280;43816;52.054;-9.494;2023-02-19T00:16:58;102318.84;;;19.81;44.92
57616;BME280;43816;52.054;-9.494;2023-02-19T00:17:08;102342.41;;;19.91;44.85
57616;BME280;43816;52.054;-9.494;2023-02-19T00:17:18;102342.13;;;19.94;44.62
57616;BME280;43816;52.054;-9.494;2023-02-19T00:17:30;102341.16;;;19.95;44.94
57616;BME280;43816;52.054;-9.494;2023-02-19T00:17:40;102345.91;;;19.93;44.81
57616;BME280;43816;52.054;-9.494;2023-02-19T00:17:51;102347.59;;;19.94;44.71
57616;BME280;43816;52.054;-9.494;2023-02-19T00:18:01;102340.56;;;19.92;44.82
57616;BME280;43816;52.054;-9.494;2023-02-19T00:18:11;102344.16;;;19.92;44.76
57616;BME280;43816;52.054;-9.494;2023-02-19T00:18:22;102349.91;;;19.99;44.96
57616;BME280;43816;52.054;-9.494;2023-02-19T00:18:33;102356.22;;;20.00;44.76
57616;BME280;43816;52.054;-9.494;2023-02-19T00:18:44;102324.03;;;19.84;44.81
57616;BME280;43816;52.054;-9.494;2023-02-19T00:18:56;102308.56;;;19.73;45.15
57616;BME280;43816;52.054;-9.494;2023-02-19T00:19:11;102352.50;;;20.01;44.98
57616;BME280;43816;52.054;-9.494;2023-02-19T00:19:21;102341.56;;;19.91;44.97
57616;BME280;43816;52.054;-9.494;2023-02-19T00:19:32;102344.03;;;19.94;44.86
57616;BME280;43816;52.054;-9.494;2023-02-19T00:19:42;102330.06;;;19.87;44.94
57616;BME280;43816;52.054;-9.494;2023-02-19T00:19:52;102329.91;;;19.89;44.90
57616;BME280;43816;52.054;-9.494;2023-02-19T00:20:02;102330.50;;;19.92;45.06
57616;BME280;43816;52.054;-9.494;2023-02-19T00:20:13;102343.44;;;19.90;44.89
57616;BME280;43816;52.054;-9.494;2023-02-19T00:20:23;102351.66;;;20.00;44.73
57616;BME280;43816;52.054;-9.494;2023-02-19T00:20:33;102336.94;;;19.91;44.85
57616;BME280;43816;52.054;-9.494;2023-02-19T00:20:44;102360.72;;;20.01;44.76
57616;BME280;43816;52.054;-9.494;2023-02-19T00:20:55;102352.66;;;19.99;44.87
57616;BME280;43816;52.054;-9.494;2023-02-19T00:21:05;102354.66;;;19.97;44.83
57616;BME280;43816;52.054;-9.494;2023-02-19T00:21:16;102345.91;;;19.93;44.99
57616;BME280;43816;52.054;-9.494;2023-02-19T00:21:27;102324.03;;;19.84;44.72
57616;BME280;43816;52.054;-9.494;2023-02-19T00:21:38;102333.78;;;19.86;44.93
57616;BME280;43816;52.054;-9.494;2023-02-19T00:21:52;102352.66;;;19.99;45.02
57616;BME280;43816;52.054;-9.494;2023-02-19T00:22:02;102326.00;;;19.82;44.94
57616;BME280;43816;52.054;-9.494;2023-02-19T00:22:13;102329.34;;;19.85;44.92
57616;BME280;43816;52.054;-9.494;2023-02-19T00:22:23;102342.56;;;19.90;44.99
57616;BME280;43816;52.054;-9.494;2023-02-19T00:22:33;102345.16;;;19.91;45.09
57616;BME280;43816;52.054;-9.494;2023-02-19T00:22:43;102348.47;;;19.95;44.92
57616;BME280;43816;52.054;-9.494;2023-02-19T00:22:54;102336.94;;;19.91;45.00
57616;BME280;43816;52.054;-9.494;2023-02-19T00:23:04;102354.53;;;19.99;45.05
57616;BME280;43816;52.054;-9.494;2023-02-19T00:23:14;102346.63;;;19.95;44.82
57616;BME280;43816;52.054;-9.494;2023-02-19T00:23:25;102341.44;;;19.92;44.98
57616;BME280;43816;52.054;-9.494;2023-02-19T00:23:35;102333.66;;;19.88;44.86
57616;BME280;43816;52.054;-9.494;2023-02-19T00:23:50;102352.66;;;19.99;45.04
57616;BME280;43816;52.054;-9.494;2023-02-19T00:24:03;102350.06;;;19.98;44.86
57616;BME280;43816;52.054;-9.494;2023-02-19T00:24:13;102333.22;;;19.92;44.89
57616;BME280;43816;52.054;-9.494;2023-02-19T00:24:24;102341.28;;;19.94;45.30
57616;BME280;43816;52.054;-9.494;2023-02-19T00:24:34;102350.19;;;19.96;44.77
57616;BME280;43816;52.054;-9.494;2023-02-19T00:24:44;102341.56;;;19.91;44.73
57616;BME280;43816;52.054;-9.494;2023-02-19T00:24:54;102338.84;;;19.91;44.90
57616;BME280;43816;52.054;-9.494;2023-02-19T00:25:05;102315.38;;;19.78;44.95
57616;BME280;43816;52.054;-9.494;2023-02-19T00:25:15;102344.03;;;19.94;45.05
57616;BME280;43816;52.054;-9.494;2023-02-19T00:25:26;102349.34;;;19.95;44.81
57616;BME280;43816;52.054;-9.494;2023-02-19T00:25:36;102324.31;;;19.81;44.87
57616;BME280;43816;52.054;-9.494;2023-02-19T00:25:46;102330.34;;;19.84;44.86
57616;BME280;43816;52.054;-9.494;2023-02-19T00:26:04;102351.06;;;19.96;44.95
57616;BME280;43816;52.054;-9.494;2023-02-19T00:26:15;102338.25;;;19.87;45.07
57616;BME280;43816;52.054;-9.494;2023-02-19T00:26:26;102356.50;;;19.96;44.79
57616;BME280;43816;52.054;-9.494;2023-02-19T00:26:37;102342.69;;;19.88;44.77
57616;BME280;43816;52.054;-9.494;2023-02-19T00:26:48;102345.16;;;19.91;44.89
57616;BME280;43816;52.054;-9.494;2023-02-19T00:26:58;102337.22;;;19.88;44.93
57616;BME280;43816;52.054;-9.494;2023-02-19T00:27:08;102334.94;;;19.84;45.02
57616;BME280;43816;52.054;-9.494;2023-02-19T00:27:19;102332.63;;;19.79;44.96
57616;BME280;43816;52.054;-9.494;2023-02-19T00:27:29;102320.25;;;19.75;45.00
57616;BME280;43816;52.054;-9.494;2023-02-19T00:27:39;102348.47;;;19.95;44.90
57616;BME280;43816;52.054;-9.494;2023-02-19T00:27:49;102329.63;;;19.82;44.83
57616;BME280;43816;52.054;-9.494;2023-02-19T00:28:00;102318.41;;;19.75;44.96
57616;BME280;43816;52.054;-9.494;2023-02-19T00:28:10;102327.16;;;19.79;45.13
57616;BME280;43816;52.054;-9.494;2023-02-19T00:28:21;102334.66;;;19.87;45.03
57616;BME280;43816;52.054;-9.494;2023-02-19T00:28:31;102340.28;;;19.85;44.98
57616;BME280;43816;52.054;-9.494;2023-02-19T00:28:41;102293.59;;;19.57;44.70
57616;BME280;43816;52.054;-9.494;2023-02-19T00:28:53;102356.66;;;19.95;44.88
57616;BME280;43816;52.054;-9.494;2023-02-19T00:29:04;102323.44;;;19.80;44.89
57616;BME280;43816;52.054;-9.494;2023-02-19T00:29:19;102354.81;;;19.95;44.86
57616;BME280;43816;52.054;-9.494;2023-02-19T00:29:29;102341.84;;;19.88;44.84
57616;BME280;43816;52.054;-9.494;2023-02-19T00:29:40;102334.38;;;19.80;44.79
57616;BME280;43816;52.054;-9.494;2023-02-19T00:29:50;102341.97;;;19.86;44.96
57616;BME280;43816;52.054;-9.494;2023-02-19T00:30:00;102340.28;;;19.85;44.96
57616;BME280;43816;52.054;-9.494;2023-02-19T00:30:11;102335.22;;;19.81;44.91
57616;BME280;43816;52.054;-9.494;2023-02-19T00:30:21;102358.53;;;19.94;44.85
57616;BME280;43816;52.054;-9.494;2023-02-19T00:30:32;102343.00;;;19.85;44.87
57616;BME280;43816;52.054;-9.494;2023-02-19T00:30:42;102331.63;;;19.80;44.93
57616;BME280;43816;52.054;-9.494;2023-02-19T00:30:52;102333.63;;;19.78;44.86
57616;BME280;43816;52.054;-9.494;2023-02-19T00:31:15;102339.38;;;19.85;44.96
57616;BME280;43816;52.054;-9.494;2023-02-19T00:31:28;102359.38;;;19.95;44.73
57616;BME280;43816;52.054;-9.494;2023-02-19T00:31:39;102344.56;;;19.88;45.10
57616;BME280;43816;52.054;-9.494;2023-02-19T00:31:49;102346.72;;;19.84;45.05
57616;BME280;43816;52.054;-9.494;2023-02-19T00:32:00;102334.38;;;19.80;44.65
57616;BME280;43816;52.054;-9.494;2023-02-19T00:32:10;102333.34;;;19.81;44.84
57616;BME280;43816;52.054;-9.494;2023-02-19T00:32:20;102327.44;;;19.76;44.91
57616;BME280;43816;52.054;-9.494;2023-02-19T00:32:30;102329.91;;;19.79;44.94
57616;BME280;43816;52.054;-9.494;2023-02-19T00:32:41;102345.72;;;19.85;44.84
57616;BME280;43816;52.054;-9.494;2023-02-19T00:32:51;102331.03;;;19.76;44.93
57616;BME280;43816;52.054;-9.494;2023-02-19T00:33:01;102351.91;;;19.87;44.77
57616;BME280;43816;52.054;-9.494;2023-02-19T00:33:12;102358.66;;;19.93;44.83
57616;BME280;43816;52.054;-9.494;2023-02-19T00:33:22;102347.56;;;19.85;44.75
57616;BME280;43816;52.054;-9.494;2023-02-19T00:33:33;102336.22;;;19.80;44.75
57616;BME280;43816;52.054;-9.494;2023-02-19T00:33:45;102348.47;;;19.85;44.75
57616;BME280;43816;52.054;-9.494;2023-02-19T00:33:58;102361.41;;;19.93;45.12
57616;BME280;43816;52.054;-9.494;2023-02-19T00:34:09;102351.91;;;19.87;44.91
57616;BME280;43816;52.054;-9.494;2023-02-19T00:34:19;102297.19;;;19.58;44.91
57616;BME280;43816;52.054;-9.494;2023-02-19T00:34:29;102344.84;;;19.85;44.97
57616;BME280;43816;52.054;-9.494;2023-02-19T00:34:40;102344.00;;;19.84;44.81
57616;BME280;43816;52.054;-9.494;2023-02-19T00:34:50;102355.63;;;19.86;45.04
57616;BME280;43816;52.054;-9.494;2023-02-19T00:35:00;102337.09;;;19.80;44.83
57616;BME280;43816;52.054;-9.494;2023-02-19T00:35:10;102342.25;;;19.83;44.73
57616;BME280;43816;52.054;-9.494;2023-02-19T00:35:21;102354.50;;;19.89;44.96
57616;BME280;43816;52.054;-9.494;2023-02-19T00:35:34;102360.69;;;19.91;44.81
57616;BME280;43816;52.054;-9.494;2023-02-19T00:35:45;102347.44;;;19.86;45.20
57616;BME280;43816;52.054;-9.494;2023-02-19T00:35:59;102338.38;;;19.76;44.94
57616;BME280;43816;52.054;-9.494;2023-02-19T00:36:09;102353.78;;;19.87;44.96
57616;BME280;43816;52.054;-9.494;2023-02-19T00:36:20;102363.28;;;19.92;44.89
57616;BME280;43816;52.054;-9.494;2023-02-19T00:36:32;102321.78;;;19.68;44.77
57616;BME280;43816;52.054;-9.494;2023-02-19T00:36:43;102360.53;;;19.92;44.88
57616;BME280;43816;52.054;-9.494;2023-02-19T00:36:53;102332.91;;;19.76;44.71
57616;BME280;43816;52.054;-9.494;2023-02-19T00:37:03;102350.16;;;19.86;44.93
57616;BME280;43816;52.054;-9.494;2023-02-19T00:37:14;102353.94;;;19.85;45.06
57616;BME280;43816;52.054;-9.494;2023-02-19T00:37:24;102357.38;;;19.87;44.75
57616;BME280;43816;52.054;-9.494;2023-02-19T00:37:34;102350.44;;;19.83;44.79
57616;BME280;43816;52.054;-9.494;2023-02-19T00:37:45;102349.03;;;19.79;44.89
57616;BME280;43816;52.054;-9.494;2023-02-19T00:37:55;102343.81;;;19.76;44.88
57616;BME280;43816;52.054;-9.494;2023-02-19T00:38:05;102335.50;;;19.77;44.65
57616;BME280;43816;52.054;-9.494;2023-02-19T00:38:15;102360.09;;;19.87;44.85
57616;BME280;43816;52.054;-9.494;2023-02-19T00:38:26;102361.69;;;19.90;44.77
57616;BME280;43816;52.054;-9.494;2023-02-19T00:38:37;102363.56;;;19.89;44.89
57616;BME280;43816;52.054;-9.494;2023-02-19T00:38:48;102362.56;;;19.90;44.76
57616;BME280;43816;52.054;-9.494;2023-02-19T00:38:59;102346.88;;;19.83;44.82
57616;BME280;43816;52.054;-9.494;2023-02-19T00:39:13;102333.16;;;19.73;44.76
57616;BME280;43816;52.054;-9.494;2023-02-19T00:39:24;102348.75;;;19.82;44.77
57616;BME280;43816;52.054;-9.494;2023-02-19T00:39:34;102354.06;;;19.84;44.81
57616;BME280;43816;52.054;-9.494;2023-02-19T00:39:44;102346.28;;;19.79;44.81
57616;BME280;43816;52.054;-9.494;2023-02-19T00:39:55;102347.28;;;19.78;44.64
57616;BME280;43816;52.054;-9.494;2023-02-19T00:40:05;102345.00;;;19.83;44.85
57616;BME280;43816;52.054;-9.494;2023-02-19T00:40:16;102310.84;;;19.58;44.84
57616;BME280;43816;52.054;-9.494;2023-02-19T00:40:26;102327.97;;;19.70;44.87
57616;BME280;43816;52.054;-9.494;2023-02-19T00:40:37;102337.75;;;19.72;44.95
57616;BME280;43816;52.054;-9.494;2023-02-19T00:40:47;102351.47;;;19.82;45.03
57616;BME280;43816;52.054;-9.494;2023-02-19T00:40:58;102363.69;;;19.88;44.74
57616;BME280;43816;52.054;-9.494;2023-02-19T00:41:09;102357.25;;;19.89;44.53
57616;BME280;43816;52.054;-9.494;2023-02-19T00:41:21;102352.31;;;19.83;44.81
57616;BME280;43816;52.054;-9.494;2023-02-19T00:41:32;102343.81;;;19.76;44.67
57616;BME280;43816;52.054;-9.494;2023-02-19T00:41:43;102355.06;;;19.83;44.47
57616;BME280;43816;52.054;-9.494;2023-02-19T00:41:53;102359.97;;;19.89;44.65
57616;BME280;43816;52.054;-9.494;2023-02-19T00:42:04;102334.16;;;19.72;44.90
57616;BME280;43816;52.054;-9.494;2023-02-19T00:42:14;102348.44;;;19.75;44.86
57616;BME280;43816;52.054;-9.494;2023-02-19T00:42:24;102346.28;;;19.79;44.92
57616;BME280;43816;52.054;-9.494;2023-02-19T00:42:34;102351.47;;;19.82;44.70
57616;BME280;43816;52.054;-9.494;2023-02-19T00:42:45;102349.88;;;19.80;44.79
57616;BME280;43816;52.054;-9.494;2023-02-19T00:42:55;102339.63;;;19.72;44.63
57616;BME280;43816;52.054;-9.494;2023-02-19T00:43:05;102358.78;;;19.82;44.97
57616;BME280;43816;52.054;-9.494;2023-02-19T00:43:15;102345.56;;;19.77;44.74
57616;BME280;43816;52.054;-9.494;2023-02-19T00:43:26;102358.19;;;19.78;44.75
57616;BME280;43816;52.054;-9.494;2023-02-19T00:43:36;102355.91;;;19.83;44.89
57616;BME280;43816;52.054;-9.494;2023-02-19T00:44:06;102356.22;;;19.80;44.89
57616;BME280;43816;52.054;-9.494;2023-02-19T00:44:17;102366.41;;;19.88;44.69
57616;BME280;43816;52.054;-9.494;2023-02-19T00:44:27;102330.38;;;19.63;44.61
57616;BME280;43816;52.054;-9.494;2023-02-19T00:44:37;102365.00;;;19.84;44.90
57616;BME280;43816;52.054;-9.494;2023-02-19T00:44:47;102358.34;;;19.76;44.80
57616;BME280;43816;52.054;-9.494;2023-02-19T00:44:58;102363.38;;;19.81;44.66
57616;BME280;43816;52.054;-9.494;2023-02-19T00:45:08;102354.63;;;19.77;44.83
57616;BME280;43816;52.054;-9.494;2023-02-19T00:45:18;102355.47;;;19.78;44.78
57616;BME280;43816;52.054;-9.494;2023-02-19T00:45:29;102333.69;;;19.67;44.67
57616;BME280;43816;52.054;-9.494;2023-02-19T00:45:39;102354.47;;;19.79;44.67
57616;BME280;43816;52.054;-9.494;2023-02-19T00:45:49;102358.47;;;19.75;44.55
57616;BME280;43816;52.054;-9.494;2023-02-19T00:45:59;102362.66;;;19.79;44.90
57616;BME280;43816;52.054;-9.494;2023-02-19T00:46:10;102348.69;;;19.72;44.78
57616;BME280;43816;52.054;-9.494;2023-02-19T00:46:29;102346.94;;;19.71;44.74
57616;BME280;43816;52.054;-9.494;2023-02-19T00:46:42;102372.03;;;19.86;44.70
57616;BME280;43816;52.054;-9.494;2023-02-19T00:46:53;102353.50;;;19.80;44.70
57616;BME280;43816;52.054;-9.494;2023-02-19T00:47:03;102366.84;;;19.83;44.65
57616;BME280;43816;52.054;-9.494;2023-02-19T00:47:13;102348.69;;;19.72;44.74
57616;BME280;43816;52.054;-9.494;2023-02-19T00:47:26;102346.81;;;19.73;44.84
57616;BME280;43816;52.054;-9.494;2023-02-19T00:47:36;102354.00;;;19.74;44.51
57616;BME280;43816;52.054;-9.494;2023-02-19T00:47:47;102370.59;;;19.82;44.83
57616;BME280;43816;52.054;-9.494;2023-02-19T00:47:57;102359.09;;;19.78;44.75
57616;BME280;43816;52.054;-9.494;2023-02-19T00:48:07;102347.22;;;19.68;44.76
57616;BME280;43816;52.054;-9.494;2023-02-19T00:48:17;102359.94;;;19.79;45.00
57616;BME280;43816;52.054;-9.494;2023-02-19T00:48:28;102349.53;;;19.73;44.76
57616;BME280;43816;52.054;-9.494;2023-02-19T00:48:38;102358.47;;;19.75;44.64
57616;BME280;43816;52.054;-9.494;2023-02-19T00:48:48;102350.56;;;19.72;44.81
57616;BME280;43816;52.054;-9.494;2023-02-19T00:48:59;102377.47;;;19.86;44.74
57616;BME280;43816;52.054;-9.494;2023-02-19T00:49:19;102364.41;;;19.80;44.46
57616;BME280;43816;52.054;-9.494;2023-02-19T00:49:30;102310.66;;;19.50;44.90
57616;BME280;43816;52.054;-9.494;2023-02-19T00:49:40;102362.81;;;19.77;44.76
57616;BME280;43816;52.054;-9.494;2023-02-19T00:49:50;102359.22;;;19.77;44.57
57616;BME280;43816;52.054;-9.494;2023-02-19T00:50:00;102334.59;;;19.67;44.47
57616;BME280;43816;52.054;-9.494;2023-02-19T00:50:11;102354.75;;;19.76;44.77
57616;BME280;43816;52.054;-9.494;2023-02-19T00:50:21;102355.88;;;19.73;44.73
57616;BME280;43816;52.054;-9.494;2023-02-19T00:50:31;102342.38;;;19.72;44.56
57616;BME280;43816;52.054;-9.494;2023-02-19T00:50:42;102366.56;;;19.86;44.75
57616;BME280;43816;52.054;-9.494;2023-02-19T00:50:52;102354.13;;;19.72;44.79
57616;BME280;43816;52.054;-9.494;2023-02-19T00:51:03;102350.41;;;19.73;44.84
57616;BME280;43816;52.054;-9.494;2023-02-19T00:51:13;102331.41;;;19.62;44.68
57616;BME280;43816;52.054;-9.494;2023-02-19T00:51:26;102375.78;;;19.85;44.85
57616;BME280;43816;52.054;-9.494;2023-02-19T00:51:37;102350.81;;;19.69;44.66
57616;BME280;43816;52.054;-9.494;2023-02-19T00:51:49;102358.47;;;19.75;44.74
57616;BME280;43816;52.054;-9.494;2023-02-19T00:52:00;102353.28;;;19.72;44.75
57616;BME280;43816;52.054;-9.494;2023-02-19T00:52:10;102310.81;;;19.48;44.84
57616;BME280;43816;52.054;-9.494;2023-02-19T00:52:20;102355.75;;;19.75;44.79
57616;BME280;43816;52.054;-9.494;2023-02-19T00:52:30;102358.94;;;19.80;44.78
57616;BME280;43816;52.054;-9.494;2023-02-19T00:52:41;102377.75;;;19.83;44.92
57616;BME280;43816;52.054;-9.494;2023-02-19T00:52:51;102363.66;;;19.78;44.94
57616;BME280;43816;52.054;-9.494;2023-02-19T00:53:01;102350.69;;;19.70;44.79
57616;BME280;43816;52.054;-9.494;2023-02-19T00:53:11;102361.06;;;19.76;44.83
57616;BME280;43816;52.054;-9.494;2023-02-19T00:53:22;102364.69;;;19.77;44.79
57616;BME280;43816;52.054;-9.494;2023-02-19T00:53:32;102354.84;;;19.74;44.96
57616;BME280;43816;52.054;-9.494;2023-02-19T00:53:42;102353.28;;;19.72;44.86
57616;BME280;43816;52.054;-9.494;2023-02-19T00:53:53;102374.03;;;19.84;44.82
57616;BME280;43816;52.054;-9.494;2023-02-19T00:54:04;102360.47;;;19.73;44.60
57616;BME280;43816;52.054;-9.494;2023-02-19T00:54:15;102370.44;;;19.84;44.74
57616;BME280;43816;52.054;-9.494;2023-02-19T00:54:26;102359.47;;;19.74;44.81
57616;BME280;43816;52.054;-9.494;2023-02-19T00:54:36;102362.94;;;19.76;44.74
57616;BME280;43816;52.054;-9.494;2023-02-19T00:54:46;102368.84;;;19.81;44.71
57616;BME280;43816;52.054;-9.494;2023-02-19T00:54:56;102362.19;;;19.74;44.92
57616;BME280;43816;52.054;-9.494;2023-02-19T00:55:07;102354.41;;;19.69;44.85
57616;BME280;43816;52.054;-9.494;2023-02-19T00:55:17;102350.09;;;19.67;44.92
57616;BME280;43816;52.054;-9.494;2023-02-19T00:55:27;102354.13;;;19.72;44.74
57616;BME280;43816;52.054;-9.494;2023-02-19T00:55:38;102344.94;;;19.64;44.69
57616;BME280;43816;52.054;-9.494;2023-02-19T00:55:48;102361.22;;;19.75;44.83
57616;BME280;43816;52.054;-9.494;2023-02-19T00:55:58;102377.75;;;19.83;44.77
57616;BME280;43816;52.054;-9.494;2023-02-19T00:56:09;102373.31;;;19.82;44.92
57616;BME280;43816;52.054;-9.494;2023-02-19T00:56:20;102356.00;;;19.72;44.90
57616;BME280;43816;52.054;-9.494;2023-02-19T00:56:30;102359.03;;;19.69;44.71
57616;BME280;43816;52.054;-9.494;2023-02-19T00:56:41;102366.81;;;19.73;44.79
57616;BME280;43816;52.054;-9.494;2023-02-19T00:56:51;102378.06;;;19.80;44.85